Time;durP1;ratioP1;P1;durP2;ratioP2;P2;SDS_P1;SDS_P2;PMS_P1;PMS_P2;Temp;Humidity;BMP_temperature;BMP_pressure;BME280_temperature;BME280_humidity;BME280_pressure;Samples;Min_cycle;Max_cycle;Signal;HPM_P1;HPM_P2
2022/04/22 00:02:16;;;;;;;14.25;5.75;;;12.00;99.90;;;;;;5035221;28;20249;-77
2022/04/22 00:04:41;;;;;;;9.82;5.68;;;12.00;99.90;;;;;;5057604;28;20051;-76
2022/04/22 00:07:07;;;;;;;11.80;6.70;;;11.90;99.90;;;;;;5042110;28;20048;-76
2022/04/22 00:09:33;;;;;;;12.43;5.82;;;11.90;99.90;;;;;;5046676;28;20136;-77
2022/04/22 00:11:58;;;;;;;12.00;5.40;;;11.90;99.90;;;;;;5042661;28;20048;-77
2022/04/22 00:14:24;;;;;;;10.23;5.47;;;11.90;99.90;;;;;;5060452;28;20079;-76
2022/04/22 00:16:50;;;;;;;14.32;6.10;;;11.80;99.90;;;;;;5053362;28;20044;-76
2022/04/22 00:19:16;;;;;;;13.27;5.80;;;11.80;99.90;;;;;;5048274;28;20045;-76
2022/04/22 00:21:42;;;;;;;14.52;5.80;;;11.70;99.90;;;;;;5039048;28;20621;-76
2022/04/22 00:24:08;;;;;;;12.63;5.53;;;11.70;99.90;;;;;;5041464;28;20139;-77
2022/04/22 00:26:33;;;;;;;10.13;5.13;;;11.70;99.90;;;;;;5054147;28;20044;-76
2022/04/22 00:28:59;;;;;;;10.65;5.50;;;11.60;99.90;;;;;;5057754;28;20407;-76
2022/04/22 00:31:25;;;;;;;9.98;5.20;;;11.60;99.90;;;;;;5048709;28;20101;-76
2022/04/22 00:33:50;;;;;;;9.57;5.18;;;11.50;99.90;;;;;;5053545;28;20123;-77
2022/04/22 00:36:16;;;;;;;9.40;5.38;;;11.50;99.90;;;;;;5045977;28;20500;-77
2022/04/22 00:38:41;;;;;;;12.20;5.00;;;11.40;99.90;;;;;;5059159;28;20064;-76
2022/04/22 00:41:08;;;;;;;11.60;5.75;;;11.30;99.90;;;;;;5047013;28;20051;-76
2022/04/22 00:43:42;;;;;;;12.48;6.55;;;11.30;99.90;;;;;;5062326;28;20061;-76
2022/04/22 00:46:08;;;;;;;10.32;5.82;;;11.30;99.90;;;;;;5062291;28;20392;-76
2022/04/22 00:48:33;;;;;;;8.48;5.97;;;11.20;99.90;;;;;;5062846;28;20045;-77
2022/04/22 00:50:59;;;;;;;12.50;5.30;;;11.20;99.90;;;;;;5036100;28;20056;-76
2022/04/22 00:53:25;;;;;;;17.88;6.30;;;11.20;99.90;;;;;;5068202;28;20115;-77
2022/04/22 00:55:51;;;;;;;9.85;5.45;;;11.20;99.90;;;;;;5043948;28;20048;-77
2022/04/22 00:58:17;;;;;;;10.95;5.70;;;11.10;99.90;;;;;;5039761;28;20071;-76
2022/04/22 01:00:42;;;;;;;9.82;5.45;;;11.10;99.90;;;;;;5065891;28;20041;-76
2022/04/22 01:03:09;;;;;;;10.00;5.60;;;11.00;99.90;;;;;;5043689;28;20052;-76
2022/04/22 01:11:04;;;;;;;10.07;5.03;;;11.00;99.90;;;;;;5042135;28;20052;-76
2022/04/22 01:13:30;;;;;;;15.20;5.90;;;10.90;99.90;;;;;;5048973;28;20129;-76
2022/04/22 01:15:56;;;;;;;9.75;6.28;;;10.90;99.90;;;;;;5058045;28;20056;-76
2022/04/22 01:18:22;;;;;;;11.70;5.03;;;10.90;99.90;;;;;;5042337;28;20053;-76
2022/04/22 01:20:47;;;;;;;11.13;6.13;;;10.90;99.90;;;;;;5059077;28;20468;-76
2022/04/22 01:23:13;;;;;;;12.65;5.93;;;10.90;99.90;;;;;;5030420;28;20404;-76
2022/04/22 01:25:39;;;;;;;11.32;6.35;;;10.80;99.90;;;;;;5057499;28;20049;-77
2022/04/22 01:28:05;;;;;;;9.13;5.55;;;10.80;99.90;;;;;;5058463;28;20068;-76
2022/04/22 01:30:31;;;;;;;10.98;5.40;;;10.80;99.90;;;;;;5042052;28;20664;-76
2022/04/22 01:32:57;;;;;;;11.27;5.32;;;10.80;99.90;;;;;;5065385;28;20041;-76
2022/04/22 01:35:24;;;;;;;15.18;6.43;;;10.70;99.90;;;;;;5036112;28;20140;-76
2022/04/22 01:37:50;;;;;;;15.98;6.10;;;10.70;99.90;;;;;;5036765;28;20044;-77
2022/04/22 01:40:17;;;;;;;9.93;5.20;;;10.60;99.90;;;;;;5053699;28;20048;-75
2022/04/22 01:42:42;;;;;;;9.55;5.93;;;10.60;99.90;;;;;;5060475;28;20468;-76
2022/04/22 01:45:09;;;;;;;15.98;5.97;;;10.60;99.90;;;;;;5068782;28;20082;-77
2022/04/22 01:47:35;;;;;;;8.75;4.85;;;10.50;99.90;;;;;;5075902;28;20517;-76
2022/04/22 01:50:02;;;;;;;11.13;5.75;;;10.50;99.90;;;;;;5048994;28;20131;-76
2022/04/22 01:52:29;;;;;;;13.02;5.03;;;10.40;99.90;;;;;;5047944;28;20068;-77
2022/04/22 01:54:56;;;;;;;9.82;5.22;;;10.40;99.90;;;;;;5060200;28;20036;-76
2022/04/22 01:57:22;;;;;;;11.93;5.40;;;10.30;99.90;;;;;;5038422;28;20492;-75
2022/04/22 01:59:48;;;;;;;10.32;5.10;;;10.30;99.90;;;;;;5049434;28;20056;-78
2022/04/22 02:02:18;;;;;;;11.68;5.25;;;10.20;99.90;;;;;;5030108;28;20416;-77
2022/04/22 02:04:44;;;;;;;12.40;5.93;;;10.20;99.90;;;;;;5061186;28;20079;-77
2022/04/22 02:07:11;;;;;;;12.98;5.80;;;10.20;99.90;;;;;;5045808;28;20202;-76
2022/04/22 02:09:37;;;;;;;10.30;5.28;;;10.10;99.90;;;;;;5062716;28;20384;-76
2022/04/22 02:12:06;;;;;;;7.22;5.38;;;10.10;99.90;;;;;;5041689;28;20067;-76
2022/04/22 02:14:33;;;;;;;10.00;4.90;;;10.00;99.90;;;;;;5031615;28;20318;-76
2022/04/22 02:16:59;;;;;;;9.70;5.75;;;10.00;99.90;;;;;;5030398;28;20063;-77
2022/04/22 02:19:25;;;;;;;9.02;5.07;;;10.00;99.90;;;;;;5065094;28;20046;-76
2022/04/22 02:21:51;;;;;;;9.68;5.68;;;10.00;99.90;;;;;;5054522;28;20123;-77
2022/04/22 02:24:17;;;;;;;13.85;5.50;;;9.90;99.90;;;;;;5058318;28;20048;-76
2022/04/22 02:29:27;;;;;;;9.35;5.28;;;9.90;99.90;;;;;;5065235;28;20098;-77
2022/04/22 02:31:53;;;;;;;10.57;5.35;;;9.80;99.90;;;;;;5060810;28;20072;-77
2022/04/22 02:34:23;;;;;;;10.65;5.43;;;9.80;99.90;;;;;;5037026;28;20513;-76
2022/04/22 02:36:49;;;;;;;14.60;5.20;;;9.80;99.90;;;;;;5055032;28;20044;-77
2022/04/22 02:39:16;;;;;;;10.32;5.13;;;9.70;99.90;;;;;;5034251;28;21092;-77
2022/04/22 02:47:10;;;;;;;14.90;5.25;;;9.60;99.90;;;;;;5063534;28;20102;-77
2022/04/22 02:49:36;;;;;;;13.77;5.93;;;9.60;99.90;;;;;;5041188;28;20561;-77
2022/04/22 02:52:02;;;;;;;9.45;4.80;;;9.50;99.90;;;;;;5059166;28;20041;-77
2022/04/22 02:54:34;;;;;;;13.32;4.90;;;9.50;99.90;;;;;;5032821;28;20473;-77
2022/04/22 02:57:00;;;;;;;12.18;5.30;;;9.50;99.90;;;;;;5054428;28;20052;-77
2022/04/22 02:59:27;;;;;;;9.27;4.50;;;9.50;99.90;;;;;;5057099;28;20044;-77
2022/04/22 03:01:56;;;;;;;7.72;5.18;;;9.40;99.90;;;;;;5041178;28;20072;-77
2022/04/22 03:04:22;;;;;;;12.82;5.32;;;9.90;99.90;;;;;;5049333;28;20416;-77
2022/04/22 03:06:47;;;;;;;9.32;4.97;;;9.40;99.90;;;;;;5061807;28;20455;-76
2022/04/22 03:09:13;;;;;;;9.60;4.93;;;9.40;99.90;;;;;;5044805;28;20137;-75
2022/04/22 03:11:38;;;;;;;11.32;5.95;;;9.30;99.90;;;;;;5058020;28;20886;-75
2022/04/22 03:14:05;;;;;;;7.80;4.75;;;9.30;99.90;;;;;;5042055;28;20768;-76
2022/04/22 03:16:31;;;;;;;13.18;5.03;;;9.30;99.90;;;;;;5062958;28;20087;-75
2022/04/22 03:18:57;;;;;;;11.18;5.10;;;9.20;99.90;;;;;;5039122;28;20064;-78
2022/04/22 03:21:23;;;;;;;9.95;5.40;;;9.30;99.90;;;;;;5057874;28;20400;-75
2022/04/22 03:23:51;;;;;;;9.38;5.50;;;9.20;99.90;;;;;;5050178;28;20048;-75
2022/04/22 03:26:18;;;;;;;8.60;5.28;;;9.20;99.90;;;;;;5052387;28;20041;-75
2022/04/22 03:28:44;;;;;;;10.23;4.50;;;9.20;99.90;;;;;;5046203;28;20036;-76
2022/04/22 03:31:10;;;;;;;11.10;5.97;;;9.20;99.90;;;;;;5057148;28;20442;-75
2022/04/22 03:33:35;;;;;;;11.25;5.72;;;9.10;99.90;;;;;;5037972;28;20132;-76
2022/04/22 03:36:01;;;;;;;11.25;5.40;;;9.20;99.90;;;;;;5062513;28;20368;-76
2022/04/22 03:38:27;;;;;;;9.40;5.55;;;9.10;99.90;;;;;;5060833;28;20048;-76
2022/04/22 03:40:53;;;;;;;12.30;5.68;;;9.10;99.90;;;;;;5052284;28;20056;-76
2022/04/22 03:43:21;;;;;;;12.60;5.72;;;9.10;99.90;;;;;;5064160;28;20849;-76
2022/04/22 03:45:49;;;;;;;10.65;5.65;;;9.10;99.90;;;;;;5067103;28;20962;-76
2022/04/22 03:48:14;;;;;;;9.70;5.65;;;9.00;99.90;;;;;;5037789;28;20111;-75
2022/04/22 03:50:43;;;;;;;7.60;4.68;;;9.00;99.90;;;;;;5060254;28;20047;-75
2022/04/22 03:53:12;;;;;;;8.10;4.93;;;9.00;99.90;;;;;;5049348;28;20045;-79
2022/04/22 03:55:39;;;;;;;9.73;5.28;;;8.90;99.90;;;;;;5037462;28;20404;-79
2022/04/22 03:58:11;;;;;;;8.45;4.88;;;8.90;99.90;;;;;;5035123;28;20076;-78
2022/04/22 04:00:41;;;;;;;10.65;5.65;;;8.90;99.90;;;;;;5046821;28;20048;-78
2022/04/22 04:03:14;;;;;;;9.68;5.00;;;8.90;99.90;;;;;;5056899;28;20464;-77
2022/04/22 04:05:46;;;;;;;8.75;5.05;;;8.80;99.90;;;;;;5053535;28;20132;-77
2022/04/22 04:08:12;;;;;;;12.20;5.03;;;8.80;99.90;;;;;;5043770;28;20579;-76
2022/04/22 04:16:08;;;;;;;10.25;4.90;;;8.70;99.90;;;;;;5051322;28;20052;-78
2022/04/22 04:18:39;;;;;;;14.45;4.95;;;8.70;99.90;;;;;;5056200;28;20048;-76
2022/04/22 04:23:52;;;;;;;7.93;5.10;;;8.60;99.90;;;;;;5036784;28;20057;-76
2022/04/22 04:26:19;;;;;;;8.57;4.10;;;8.60;99.90;;;;;;5049464;28;20433;-77
2022/04/22 04:28:47;;;;;;;8.40;4.35;;;8.60;99.90;;;;;;5060684;28;20032;-77
2022/04/22 04:31:13;;;;;;;10.98;4.75;;;8.60;99.90;;;;;;5052993;28;20131;-76
2022/04/22 04:33:39;;;;;;;12.38;4.45;;;8.50;99.90;;;;;;5055720;28;20040;-76
2022/04/22 04:36:06;;;;;;;9.77;4.10;;;8.50;99.90;;;;;;5051523;28;20094;-77
2022/04/22 04:38:32;;;;;;;10.93;4.20;;;8.50;99.90;;;;;;5066527;28;20360;-77
2022/04/22 04:40:58;;;;;;;8.38;4.47;;;8.40;99.90;;;;;;5088863;28;20158;-77
2022/04/22 04:43:24;;;;;;;9.55;4.25;;;8.50;99.90;;;;;;5044413;28;20102;-76
2022/04/22 04:45:50;;;;;;;9.25;4.45;;;8.40;99.90;;;;;;5070964;28;20106;-76
2022/04/22 04:48:17;;;;;;;10.77;4.53;;;8.40;99.90;;;;;;5036590;28;20037;-76
2022/04/22 04:50:43;;;;;;;7.85;4.00;;;8.40;99.90;;;;;;5035124;28;20040;-77
2022/04/22 04:53:13;;;;;;;10.35;4.30;;;8.40;99.90;;;;;;5065050;28;20057;-77
2022/04/22 04:55:39;;;;;;;9.65;4.55;;;8.40;99.90;;;;;;5060594;28;20483;-77
2022/04/22 04:58:05;;;;;;;8.68;4.20;;;8.40;99.90;;;;;;5059233;28;20044;-78
2022/04/22 05:00:31;;;;;;;11.52;4.40;;;8.40;99.90;;;;;;5057389;28;20124;-79
2022/04/22 05:02:57;;;;;;;11.52;4.53;;;8.40;99.90;;;;;;5040049;28;20084;-78
2022/04/22 05:05:26;;;;;;;7.28;3.42;;;8.40;99.90;;;;;;5031121;28;20131;-78
2022/04/22 05:07:57;;;;;;;6.72;3.90;;;8.40;99.90;;;;;;5050115;28;20041;-78
2022/04/22 05:10:25;;;;;;;7.45;3.72;;;8.40;99.90;;;;;;5031213;28;20387;-78
2022/04/22 05:12:52;;;;;;;8.27;3.92;;;8.40;99.90;;;;;;5048980;28;20059;-76
2022/04/22 05:15:22;;;;;;;12.38;4.13;;;8.50;99.90;;;;;;5032809;28;20041;-79
2022/04/22 05:17:49;;;;;;;11.30;3.70;;;8.50;99.90;;;;;;5049226;28;20073;-78
2022/04/22 05:20:17;;;;;;;7.55;3.50;;;8.50;99.90;;;;;;5036758;28;20302;-78
2022/04/22 05:22:43;;;;;;;9.00;4.07;;;8.50;99.90;;;;;;5059640;28;20170;-78
2022/04/22 05:25:10;;;;;;;8.07;3.28;;;8.50;99.90;;;;;;5057199;28;20105;-77
2022/04/22 05:27:36;;;;;;;5.50;3.13;;;8.60;99.90;;;;;;5049015;28;20059;-78
2022/04/22 05:32:48;;;;;;;9.02;3.05;;;8.60;99.90;;;;;;5049556;28;20114;-77
2022/04/22 05:35:19;;;;;;;6.20;3.35;;;8.60;99.90;;;;;;5063882;28;20052;-78
2022/04/22 05:37:49;;;;;;;8.07;3.90;;;8.70;99.90;;;;;;5050900;28;20041;-77
2022/04/22 05:40:16;;;;;;;7.80;4.03;;;8.70;99.90;;;;;;5030945;28;20056;-79
2022/04/22 05:42:43;;;;;;;7.82;2.95;;;8.80;99.90;;;;;;5049952;28;20106;-79
2022/04/22 05:45:11;;;;;;;5.95;3.08;;;8.80;99.90;;;;;;5045487;28;20102;-78
2022/04/22 05:47:37;;;;;;;6.13;3.00;;;8.80;99.90;;;;;;5035755;28;20381;-77
2022/04/22 05:50:04;;;;;;;5.82;3.42;;;8.90;99.90;;;;;;5038512;28;20044;-78
2022/04/22 05:52:34;;;;;;;5.05;3.10;;;8.80;99.90;;;;;;5051968;28;20129;-78
2022/04/22 05:55:03;;;;;;;5.13;3.05;;;8.90;99.90;;;;;;5033109;28;20087;-77
2022/04/22 05:57:32;;;;;;;7.22;2.88;;;9.00;99.90;;;;;;5050571;28;20072;-77
2022/04/22 05:59:59;;;;;;;6.25;2.83;;;9.00;99.90;;;;;;5034916;28;20115;-78
2022/04/22 06:02:27;;;;;;;6.35;2.97;;;9.10;99.90;;;;;;5041149;28;20080;-77
2022/04/22 06:04:53;;;;;;;6.07;2.97;;;9.10;99.90;;;;;;5044256;28;20049;-78
2022/04/22 06:07:19;;;;;;;7.50;2.85;;;9.20;99.90;;;;;;5043745;28;20052;-77
2022/04/22 06:12:30;;;;;;;6.13;2.80;;;9.30;99.90;;;;;;5025281;28;20053;-77
2022/04/22 06:14:59;;;;;;;9.35;2.85;;;9.30;99.90;;;;;;5010449;28;20052;-76
2022/04/22 06:17:27;;;;;;;4.80;2.97;;;9.40;99.90;;;;;;5042819;28;20044;-76
2022/04/22 06:19:53;;;;;;;11.32;2.60;;;9.40;99.90;;;;;;5018746;28;20063;-77
2022/04/22 06:22:19;;;;;;;6.00;3.08;;;9.50;99.90;;;;;;5032810;28;20116;-77
2022/04/22 06:24:44;;;;;;;5.65;2.60;;;9.60;99.90;;;;;;5039013;28;20071;-76
2022/04/22 06:27:10;;;;;;;5.82;2.50;;;9.60;99.90;;;;;;5054957;28;20109;-76
2022/04/22 06:29:36;;;;;;;5.85;3.03;;;9.70;99.90;;;;;;5010931;28;20041;-77
2022/04/22 06:32:03;;;;;;;5.85;2.15;;;9.70;99.90;;;;;;5036780;28;20507;-76
2022/04/22 06:34:29;;;;;;;5.75;2.38;;;9.80;99.90;;;;;;5046518;28;20044;-75
2022/04/22 06:36:55;;;;;;;6.63;2.58;;;9.80;99.90;;;;;;5015687;28;20088;-77
2022/04/22 06:39:21;;;;;;;9.57;2.97;;;9.90;99.90;;;;;;5040982;28;21270;-76
2022/04/22 06:47:16;;;;;;;8.70;2.53;;;10.10;99.90;;;;;;5034907;28;20049;-76
2022/04/22 06:49:41;;;;;;;6.05;2.38;;;10.20;99.90;;;;;;5014776;28;20480;-76
2022/04/22 06:52:08;;;;;;;6.35;2.78;;;10.20;99.90;;;;;;5044987;28;20044;-76
2022/04/22 06:54:34;;;;;;;5.20;2.75;;;10.30;99.90;;;;;;5043234;28;20041;-75
2022/04/22 06:57:00;;;;;;;6.68;2.53;;;10.30;99.90;;;;;;5021204;28;20136;-75
2022/04/22 06:59:26;;;;;;;5.80;2.65;;;10.40;99.90;;;;;;5033719;28;20044;-75
2022/04/22 07:01:52;;;;;;;5.25;2.33;;;10.40;99.90;;;;;;5054287;28;20057;-75
2022/04/22 07:04:22;;;;;;;5.05;2.65;;;10.50;99.90;;;;;;5042187;28;20084;-75
2022/04/22 07:06:48;;;;;;;5.70;2.55;;;10.60;99.90;;;;;;5030488;28;20049;-75
2022/04/22 07:09:16;;;;;;;5.30;2.92;;;10.60;99.90;;;;;;5054961;28;20531;-75
2022/04/22 07:11:44;;;;;;;6.68;2.83;;;10.60;99.90;;;;;;5029900;28;20135;-75
2022/04/22 07:14:12;;;;;;;7.00;2.95;;;10.70;99.90;;;;;;5056604;28;20068;-75
2022/04/22 07:16:44;;;;;;;4.57;2.45;;;10.70;99.90;;;;;;5054574;28;20038;-75
2022/04/22 07:19:13;;;;;;;4.95;2.03;;;10.80;99.90;;;;;;5045159;28;20110;-75
2022/04/22 07:21:39;;;;;;;5.85;2.80;;;10.80;99.90;;;;;;5048088;28;20048;-75
2022/04/22 07:24:05;;;;;;;11.68;2.60;;;10.90;99.90;;;;;;5053746;28;20101;-75
2022/04/22 07:26:32;;;;;;;9.40;2.88;;;10.90;99.90;;;;;;5067282;28;20121;-75
2022/04/22 07:29:00;;;;;;;4.85;2.38;;;11.00;99.90;;;;;;5047745;28;20149;-75
2022/04/22 07:31:29;;;;;;;4.63;2.45;;;11.10;99.90;;;;;;5059263;28;20155;-76
2022/04/22 07:33:55;;;;;;;7.05;2.63;;;11.10;99.90;;;;;;5057352;28;20140;-75
2022/04/22 07:36:21;;;;;;;4.68;2.38;;;11.20;99.90;;;;;;5038117;28;20470;-75
2022/04/22 07:38:47;;;;;;;8.73;2.50;;;11.20;99.90;;;;;;5031612;28;20091;-76
2022/04/22 07:41:17;;;;;;;7.75;2.95;;;11.30;99.90;;;;;;5052596;28;20140;-75
2022/04/22 07:46:48;;;;;;;4.30;2.20;;;11.40;99.90;;;;;;5028973;28;20060;-75
2022/04/22 07:49:14;;;;;;;7.22;2.75;;;11.50;99.90;;;;;;5052348;28;20459;-77
2022/04/22 07:51:40;;;;;;;5.03;2.70;;;11.60;99.90;;;;;;5053851;28;20059;-76
2022/04/22 07:54:12;;;;;;;5.60;2.80;;;11.60;99.90;;;;;;5033356;28;20044;-75
2022/04/22 07:56:37;;;;;;;6.85;2.53;;;11.70;99.90;;;;;;5049130;28;20519;-74
2022/04/22 07:59:03;;;;;;;4.68;2.78;;;11.70;99.90;;;;;;5051841;28;20076;-75
2022/04/22 08:01:29;;;;;;;6.07;2.40;;;11.80;99.90;;;;;;5048624;28;20133;-75
2022/04/22 08:03:57;;;;;;;5.80;2.67;;;11.90;99.90;;;;;;5071702;28;20102;-76
2022/04/22 08:06:26;;;;;;;5.57;2.75;;;11.90;99.90;;;;;;5036406;28;20055;-75
2022/04/22 08:08:51;;;;;;;6.90;2.53;;;11.90;99.90;;;;;;5050901;28;20059;-75
2022/04/22 08:11:19;;;;;;;7.38;2.45;;;12.00;99.90;;;;;;5040692;28;20127;-76
2022/04/22 08:13:45;;;;;;;4.38;2.33;;;12.10;99.90;;;;;;5068487;28;20040;-76
2022/04/22 08:16:11;;;;;;;7.97;2.90;;;12.10;99.90;;;;;;5048773;28;20051;-76
2022/04/22 08:18:37;;;;;;;6.32;2.63;;;12.20;99.90;;;;;;5033239;28;20396;-75
2022/04/22 08:21:02;;;;;;;5.03;2.22;;;12.30;99.90;;;;;;5032119;28;20056;-74
2022/04/22 08:23:28;;;;;;;4.28;2.38;;;12.40;99.90;;;;;;5033198;28;20037;-78
2022/04/22 08:25:55;;;;;;;9.35;2.97;;;12.40;99.90;;;;;;5041451;28;20045;-75
2022/04/22 08:28:20;;;;;;;6.53;3.17;;;12.50;99.90;;;;;;5069636;28;20474;-75
2022/04/22 08:30:46;;;;;;;4.70;2.60;;;12.50;99.90;;;;;;5048724;28;20048;-74
2022/04/22 08:33:12;;;;;;;7.35;2.47;;;12.60;99.90;;;;;;5077427;28;20128;-74
2022/04/22 08:35:38;;;;;;;5.35;2.63;;;12.70;99.90;;;;;;5049161;28;20080;-74
2022/04/22 08:38:05;;;;;;;4.93;2.30;;;12.80;99.90;;;;;;5061985;28;20048;-74
2022/04/22 08:40:31;;;;;;;5.07;2.45;;;12.80;99.90;;;;;;5057314;28;20144;-75
2022/04/22 08:43:00;;;;;;;8.25;2.55;;;12.90;99.90;;;;;;5063074;28;20461;-75
2022/04/22 08:45:26;;;;;;;7.35;2.55;;;12.90;99.90;;;;;;5049202;28;20150;-75
2022/04/22 08:50:40;;;;;;;4.25;2.28;;;13.00;99.90;;;;;;5057930;28;20033;-75
2022/04/22 08:53:15;;;;;;;6.05;2.60;;;13.00;99.90;;;;;;5033326;28;20496;-76
2022/04/22 08:55:43;;;;;;;5.00;2.13;;;13.10;99.90;;;;;;5060732;28;20040;-75
2022/04/22 08:58:13;;;;;;;7.00;2.58;;;13.20;99.90;;;;;;5065081;28;20682;-75
2022/04/22 09:00:41;;;;;;;4.40;2.30;;;13.20;99.90;;;;;;5033303;28;20067;-76
2022/04/22 09:03:09;;;;;;;9.15;2.35;;;13.30;99.90;;;;;;5051373;28;20088;-75
2022/04/22 09:05:35;;;;;;;5.22;2.10;;;13.30;99.90;;;;;;5061855;28;20033;-75
2022/04/22 09:08:01;;;;;;;4.80;2.33;;;13.40;99.90;;;;;;5051800;28;20045;-76
2022/04/22 09:10:27;;;;;;;5.18;2.40;;;13.40;99.90;;;;;;5054535;28;20459;-74
2022/04/22 09:12:55;;;;;;;5.63;2.28;;;13.50;99.90;;;;;;5049056;28;20131;-75
2022/04/22 09:15:23;;;;;;;5.72;2.40;;;13.50;99.90;;;;;;5064509;28;20045;-75
2022/04/22 09:17:49;;;;;;;9.52;2.65;;;13.60;99.90;;;;;;5041018;28;20075;-76
2022/04/22 09:20:18;;;;;;;4.68;2.40;;;13.70;99.90;;;;;;5051884;28;20041;-77
2022/04/22 09:22:47;;;;;;;7.75;2.03;;;13.60;99.90;;;;;;5056494;28;20071;-76
2022/04/22 09:25:23;;;;;;;5.45;2.83;;;13.70;99.90;;;;;;5051075;28;20044;-73
2022/04/22 09:27:48;;;;;;;6.78;2.55;;;13.60;99.90;;;;;;5063941;28;20675;-75
2022/04/22 09:30:14;;;;;;;6.35;2.42;;;13.80;99.90;;;;;;5063039;28;20072;-75
2022/04/22 09:32:41;;;;;;;16.27;2.90;;;13.80;99.90;;;;;;5047180;28;20396;-76
2022/04/22 09:35:07;;;;;;;6.63;2.50;;;13.90;99.80;;;;;;5054024;28;20504;-75
2022/04/22 09:43:21;;;;;;;7.28;2.60;;;14.00;99.50;;;;;;5052597;28;20126;-77
2022/04/22 09:45:46;;;;;;;4.50;2.53;;;14.10;99.70;;;;;;5038619;28;20049;-75
2022/04/22 09:48:14;;;;;;;7.95;2.22;;;14.10;99.30;;;;;;5038351;28;20036;-75
2022/04/22 09:50:52;;;;;;;5.88;2.50;;;14.20;99.00;;;;;;5052259;28;20084;-75
2022/04/22 09:53:32;;;;;;;6.57;2.83;;;14.30;98.60;;;;;;5054651;28;20067;-75
2022/04/22 09:56:04;;;;;;;4.05;2.30;;;14.40;98.40;;;;;;5049018;28;20543;-75
2022/04/22 09:58:29;;;;;;;9.60;3.33;;;14.40;98.40;;;;;;5030302;28;20045;-76
2022/04/22 10:01:04;;;;;;;8.90;2.90;;;14.40;98.50;;;;;;5054893;28;20052;-74
2022/04/22 10:03:37;;;;;;;5.70;2.33;;;14.60;98.00;;;;;;5041384;28;20095;-74
2022/04/22 10:06:05;;;;;;;3.47;2.08;;;14.60;97.90;;;;;;5053612;28;20052;-74
2022/04/22 10:08:35;;;;;;;7.55;2.35;;;14.70;97.80;;;;;;5031096;28;20052;-74
2022/04/22 10:11:02;;;;;;;4.57;2.60;;;14.70;97.70;;;;;;5031923;28;20545;-77
2022/04/22 10:13:50;;;;;;;5.93;2.45;;;14.90;97.40;;;;;;5047361;28;20396;-76
2022/04/22 10:16:16;;;;;;;6.25;3.15;;;14.90;97.20;;;;;;5052537;28;20047;-75
2022/04/22 10:18:42;;;;;;;8.95;2.80;;;15.00;97.20;;;;;;5051269;28;20048;-74
2022/04/22 10:21:09;;;;;;;5.35;2.60;;;15.10;97.00;;;;;;5037259;28;20132;-75
2022/04/22 10:23:36;;;;;;;9.00;2.88;;;15.10;96.80;;;;;;5039417;28;20657;-75
2022/04/22 10:26:03;;;;;;;11.70;3.25;;;15.20;96.50;;;;;;5058974;28;20099;-74
2022/04/22 10:28:31;;;;;;;6.82;3.30;;;15.20;96.10;;;;;;5051897;28;20068;-74
2022/04/22 10:31:03;;;;;;;2.83;2.30;;;15.30;95.70;;;;;;5040953;28;20424;-75
2022/04/22 10:33:40;;;;;;;6.88;2.83;;;15.30;95.60;;;;;;5052427;28;20052;-75
2022/04/22 10:36:06;;;;;;;7.15;3.40;;;15.40;95.40;;;;;;5049938;28;20086;-75
2022/04/22 10:38:38;;;;;;;6.75;2.78;;;15.50;95.40;;;;;;5037058;28;20045;-75
2022/04/22 10:41:11;;;;;;;10.40;2.92;;;15.60;95.40;;;;;;5048787;28;20474;-74
2022/04/22 10:43:37;;;;;;;5.90;2.78;;;15.70;95.20;;;;;;5049686;28;20423;-75
2022/04/22 10:49:14;;;;;;;5.20;2.75;;;15.90;94.60;;;;;;5040607;28;20041;-75
2022/04/22 10:52:09;;;;;;;5.47;2.50;;;16.10;94.20;;;;;;5027679;28;20052;-74
2022/04/22 10:54:53;;;;;;;5.00;2.67;;;16.20;94.20;;;;;;5038331;28;20053;-74
2022/04/22 10:57:23;;;;;;;4.93;2.83;;;16.40;94.00;;;;;;5060130;28;20052;-74
2022/04/22 11:00:29;;;;;;;9.77;2.83;;;16.50;93.70;;;;;;5038553;28;20053;-74
2022/04/22 11:03:08;;;;;;;8.73;2.95;;;16.60;93.10;;;;;;5060122;28;20668;-75
2022/04/22 11:05:34;;;;;;;7.53;3.10;;;16.80;92.70;;;;;;5061887;28;20037;-74
2022/04/22 11:08:06;;;;;;;5.75;2.78;;;16.90;92.10;;;;;;5049230;28;20049;-75
2022/04/22 11:10:48;;;;;;;8.88;3.28;;;17.10;91.70;;;;;;5039911;28;20052;-77
2022/04/22 11:13:34;;;;;;;7.55;3.22;;;17.30;91.50;;;;;;5044987;28;20055;-75
2022/04/22 11:16:15;;;;;;;10.20;3.20;;;17.40;91.10;;;;;;5052853;28;20043;-74
2022/04/22 11:19:04;;;;;;;8.52;2.95;;;17.60;90.60;;;;;;5038020;28;20134;-75
2022/04/22 11:21:30;;;;;;;7.95;3.22;;;17.70;90.40;;;;;;5029312;28;20091;-75
2022/04/22 11:23:56;;;;;;;6.82;3.00;;;17.80;90.00;;;;;;5047357;28;20126;-75
2022/04/22 11:26:23;;;;;;;6.00;2.75;;;18.00;89.40;;;;;;5035751;28;20522;-76
2022/04/22 11:28:51;;;;;;;4.90;3.00;;;18.20;87.80;;;;;;5058722;28;20060;-75
2022/04/22 11:31:21;;;;;;;5.93;3.33;;;18.30;87.20;;;;;;5039240;28;20056;-75
2022/04/22 11:33:57;;;;;;;5.65;2.85;;;18.40;85.10;;;;;;5038108;28;20041;-74
2022/04/22 11:36:24;;;;;;;10.20;3.13;;;18.50;84.20;;;;;;5069272;28;20105;-75
2022/04/22 11:38:55;;;;;;;7.68;3.60;;;18.70;84.50;;;;;;5039234;28;20449;-75
2022/04/22 11:41:22;;;;;;;6.35;3.35;;;18.80;84.40;;;;;;5063459;28;20044;-76
2022/04/22 11:43:48;;;;;;;5.88;3.28;;;18.90;83.30;;;;;;5032637;28;20074;-74
2022/04/22 11:46:18;;;;;;;6.57;2.90;;;19.10;82.30;;;;;;5035608;28;20168;-75
2022/04/22 11:48:53;;;;;;;8.35;2.95;;;19.20;81.00;;;;;;5054503;28;20072;-75
2022/04/22 11:51:20;;;;;;;9.20;3.22;;;19.40;79.40;;;;;;5038257;28;20044;-75
2022/04/22 11:53:51;;;;;;;5.80;3.05;;;19.40;77.60;;;;;;5051718;28;20118;-75
2022/04/22 11:56:18;;;;;;;;;;;19.50;76.60;;;;;;5034514;28;20111;-74
2022/04/22 11:58:43;;;;;;;8.27;3.03;;;19.60;78.60;;;;;;5051473;28;19982;-75
2022/04/22 12:06:41;;;;;;;12.02;3.20;;;19.90;75.90;;;;;;5058775;28;20120;-76
2022/04/22 12:09:07;;;;;;;10.75;3.30;;;20.10;74.80;;;;;;5040168;28;20053;-75
2022/04/22 12:11:43;;;;;;;7.22;2.67;;;20.20;73.40;;;;;;5062767;28;20036;-76
2022/04/22 12:14:30;;;;;;;6.70;3.13;;;20.30;71.80;;;;;;5063986;28;20071;-75
2022/04/22 12:16:58;;;;;;;7.70;3.42;;;20.40;72.00;;;;;;5063847;28;20048;-76
2022/04/22 12:19:25;;;;;;;7.70;3.35;;;20.50;71.60;;;;;;5032210;28;20669;-76
2022/04/22 12:21:51;;;;;;;6.13;3.45;;;20.60;71.00;;;;;;5034603;28;20059;-76
2022/04/22 12:24:17;;;;;;;8.18;3.30;;;20.70;70.70;;;;;;5036509;28;20033;-76
2022/04/22 12:26:45;;;;;;;5.57;3.33;;;20.80;70.70;;;;;;5060915;28;20094;-75
2022/04/22 12:29:13;;;;;;;8.45;3.63;;;21.00;70.60;;;;;;5048206;28;20048;-75
2022/04/22 12:31:44;;;;;;;11.07;3.65;;;21.00;68.90;;;;;;5090020;28;20208;-76
2022/04/22 12:34:11;;;;;;;11.70;3.67;;;21.10;68.70;;;;;;5052042;28;20051;-75
2022/04/22 12:36:40;;;;;;;8.50;3.20;;;21.30;68.90;;;;;;5050783;28;20064;-75
2022/04/22 12:39:09;;;;;;;4.30;2.63;;;21.50;68.80;;;;;;5068821;28;20057;-75
2022/04/22 12:41:45;;;;;;;4.75;3.22;;;21.70;67.70;;;;;;5052995;28;20087;-75
2022/04/22 12:44:14;;;;;;;9.68;3.38;;;21.70;67.20;;;;;;5088691;28;20388;-76
2022/04/22 12:52:25;;;;;;;10.75;3.65;;;22.10;65.40;;;;;;5069431;28;20056;-75
2022/04/22 12:55:01;;;;;;;7.55;3.25;;;22.10;65.10;;;;;;5069880;28;20052;-75
2022/04/22 12:57:27;;;;;;;10.95;4.22;;;22.20;64.90;;;;;;5051230;28;20414;-76
2022/04/22 12:59:55;;;;;;;6.55;3.47;;;22.30;64.20;;;;;;5051241;28;20052;-75
2022/04/22 13:02:34;;;;;;;7.63;3.45;;;22.40;64.30;;;;;;5051897;28;20055;-74
2022/04/22 13:05:06;;;;;;;6.15;3.50;;;22.50;64.10;;;;;;5068909;28;20056;-74
2022/04/22 13:07:40;;;;;;;6.68;3.40;;;22.60;63.30;;;;;;5032517;28;20125;-75
2022/04/22 13:10:07;;;;;;;7.18;3.58;;;22.80;63.00;;;;;;5031987;28;20060;-75
2022/04/22 13:12:34;;;;;;;8.38;3.78;;;22.80;62.80;;;;;;5032241;28;20132;-75
2022/04/22 13:15:00;;;;;;;4.90;2.92;;;22.90;62.80;;;;;;5051667;28;20040;-75
2022/04/22 13:17:25;;;;;;;6.32;4.07;;;22.80;62.20;;;;;;5050418;28;20047;-75
2022/04/22 13:19:52;;;;;;;9.98;4.07;;;23.00;61.90;;;;;;5051857;28;20049;-75
2022/04/22 13:22:18;;;;;;;7.03;3.30;;;23.00;61.40;;;;;;5050607;28;20056;-75
2022/04/22 13:24:44;;;;;;;6.10;3.90;;;23.10;62.20;;;;;;5031667;28;20071;-76
2022/04/22 13:27:12;;;;;;;10.02;4.47;;;23.20;61.80;;;;;;5048538;28;20091;-75
2022/04/22 13:29:37;;;;;;;8.48;4.10;;;23.30;61.40;;;;;;5063913;28;20051;-75
2022/04/22 13:32:03;;;;;;;8.75;4.30;;;23.50;61.00;;;;;;5070299;28;20044;-75
2022/04/22 13:34:29;;;;;;;8.82;4.15;;;23.60;61.00;;;;;;5070280;28;20055;-75
2022/04/22 13:36:55;;;;;;;6.78;3.75;;;23.70;60.60;;;;;;5050448;28;20551;-75
2022/04/22 13:39:20;;;;;;;7.25;4.00;;;23.90;60.10;;;;;;5052550;28;20045;-75
2022/04/22 13:41:46;;;;;;;8.05;3.60;;;23.90;60.50;;;;;;5056793;28;20099;-74
2022/04/22 13:44:11;;;;;;;9.35;3.78;;;24.10;60.10;;;;;;5049092;28;20047;-77
2022/04/22 13:52:21;;;;;;;7.75;3.80;;;24.00;58.50;;;;;;5031664;28;20053;-76
2022/04/22 13:54:47;;;;;;;8.07;3.60;;;23.90;58.90;;;;;;5044229;28;20045;-76
2022/04/22 13:57:12;;;;;;;6.22;3.65;;;23.90;58.70;;;;;;5050523;28;20057;-75